createdAt,value
2023-02-03T00:02:51.453Z,1.65
2023-02-03T00:05:44.923Z,2.10
2023-02-03T00:08:40.068Z,1.95
2023-02-03T00:11:34.099Z,1.70
2023-02-03T00:14:27.388Z,1.70
2023-02-03T00:17:20.619Z,1.50
2023-02-03T00:20:13.535Z,1.80
2023-02-03T00:23:07.227Z,1.65
2023-02-03T00:26:08.423Z,1.80
2023-02-03T00:29:01.766Z,1.95
2023-02-03T00:31:54.900Z,1.60
2023-02-03T00:34:48.265Z,1.92
2023-02-03T00:37:41.570Z,1.70
2023-02-03T00:40:34.511Z,1.52
2023-02-03T00:43:29.408Z,1.48
2023-02-03T00:46:22.570Z,1.65
2023-02-03T00:49:15.544Z,1.40
2023-02-03T00:52:08.578Z,1.70
2023-02-03T00:55:01.725Z,1.58
2023-02-03T00:57:54.696Z,1.60
2023-02-03T01:00:48.868Z,1.70
2023-02-03T01:03:42.338Z,1.70
2023-02-03T01:06:35.608Z,1.55
2023-02-03T01:09:28.568Z,1.30
2023-02-03T01:12:21.490Z,1.55
2023-02-03T01:15:14.558Z,2.05
2023-02-03T01:18:08.827Z,1.50
2023-02-03T01:21:06.998Z,1.48
2023-02-03T01:24:00.756Z,1.13
2023-02-03T01:26:53.371Z,1.40
2023-02-03T01:29:46.538Z,1.55
2023-02-03T01:32:39.173Z,1.38
2023-02-03T01:35:36.161Z,1.58
2023-02-03T01:38:29.472Z,1.27
2023-02-03T01:41:24.699Z,1.02
2023-02-03T01:44:40.026Z,1.42
2023-02-03T01:47:37.721Z,1.50
2023-02-03T01:50:35.616Z,1.27
2023-02-03T01:53:28.297Z,1.25
2023-02-03T01:56:22.686Z,1.60
2023-02-03T01:59:19.975Z,1.55
2023-02-03T02:02:14.535Z,1.45
2023-02-03T02:05:13.687Z,1.70
2023-02-03T02:08:10.164Z,1.00
2023-02-03T02:11:04.748Z,1.67
2023-02-03T02:14:01.244Z,1.40
2023-02-03T02:17:05.831Z,1.30
2023-02-03T02:20:26.870Z,1.20
2023-02-03T02:23:59.338Z,1.20
2023-02-03T02:27:00.881Z,1.35
2023-02-03T02:30:41.624Z,1.30
2023-02-03T02:33:43.030Z,1.20
2023-02-03T02:36:44.179Z,1.00
2023-02-03T02:39:47.832Z,1.10
2023-02-03T02:42:47.714Z,1.15
2023-02-03T02:45:47.475Z,0.98
2023-02-03T02:48:47.236Z,1.40
2023-02-03T02:51:43.804Z,1.10
2023-02-03T02:54:40.288Z,0.98
2023-02-03T02:57:37.273Z,0.90
2023-02-03T03:00:32.271Z,1.05
2023-02-03T03:03:26.567Z,1.00
2023-02-03T03:06:25.949Z,1.10
2023-02-03T03:09:24.036Z,0.75
2023-02-03T03:12:22.375Z,0.90
2023-02-03T03:15:20.324Z,0.80
2023-02-03T03:18:18.109Z,0.95
2023-02-03T03:21:15.345Z,0.80
2023-02-03T03:24:13.412Z,0.77
2023-02-03T03:27:12.192Z,0.85
2023-02-03T03:30:09.926Z,0.90
2023-02-03T03:33:02.708Z,0.90
2023-02-03T03:35:59.443Z,0.70
2023-02-03T03:38:58.471Z,0.63
2023-02-03T03:41:59.639Z,0.73
2023-02-03T03:44:58.162Z,0.80
2023-02-03T03:47:58.531Z,0.70
2023-02-03T03:50:54.632Z,0.88
2023-02-03T03:53:51.517Z,0.90
2023-02-03T03:56:49.516Z,1.00
2023-02-03T03:59:49.142Z,0.73
2023-02-03T04:02:47.436Z,1.00
2023-02-03T04:05:41.470Z,1.10
2023-02-03T04:08:34.422Z,0.77
2023-02-03T04:11:45.292Z,0.90
2023-02-03T04:14:39.212Z,0.82
2023-02-03T04:17:36.157Z,0.70
2023-02-03T04:20:30.548Z,1.00
2023-02-03T04:23:23.374Z,0.77
2023-02-03T04:26:16.588Z,0.57
2023-02-03T04:29:10.068Z,0.70
2023-02-03T04:32:03.507Z,0.88
2023-02-03T04:34:58.599Z,0.63
2023-02-03T04:37:51.550Z,0.88
2023-02-03T04:40:45.594Z,0.90
2023-02-03T04:43:38.600Z,0.77
2023-02-03T04:46:31.764Z,0.93
2023-02-03T04:49:24.535Z,0.70
2023-02-03T04:52:19.400Z,0.57
2023-02-03T04:55:12.721Z,0.95
2023-02-03T04:58:05.840Z,0.80
2023-02-03T05:00:58.586Z,0.80
2023-02-03T05:03:53.643Z,1.00
2023-02-03T05:06:46.637Z,0.80
2023-02-03T05:09:40.827Z,0.65
2023-02-03T05:12:33.725Z,1.00
2023-02-03T05:15:26.849Z,0.85
2023-02-03T05:18:19.548Z,0.90
2023-02-03T05:21:13.041Z,1.17
2023-02-03T05:24:08.008Z,0.80
2023-02-03T05:27:02.701Z,0.80
2023-02-03T05:29:55.891Z,1.30
2023-02-03T05:32:49.851Z,1.00
2023-02-03T05:35:42.683Z,1.27
2023-02-03T05:38:35.740Z,0.98
2023-02-03T05:41:46.420Z,1.00
2023-02-03T05:44:41.454Z,1.02
2023-02-03T05:47:34.608Z,1.17
2023-02-03T05:50:30.676Z,0.75
2023-02-03T05:53:23.922Z,0.80
2023-02-03T05:56:18.245Z,0.80
2023-02-03T05:59:11.572Z,0.90
2023-02-03T06:02:05.951Z,0.82
2023-02-03T06:04:59.027Z,0.90
2023-02-03T06:07:52.301Z,0.80
2023-02-03T06:10:46.137Z,1.15
2023-02-03T06:13:39.647Z,1.00
2023-02-03T06:16:32.974Z,1.05
2023-02-03T06:19:26.915Z,0.82
2023-02-03T06:22:19.601Z,0.90
2023-02-03T06:25:14.261Z,1.02
2023-02-03T06:28:07.582Z,0.95
2023-02-03T06:31:00.851Z,1.27
2023-02-03T06:33:53.504Z,0.90
2023-02-03T06:36:48.453Z,1.15
2023-02-03T06:39:41.589Z,1.10
2023-02-03T06:42:34.992Z,1.08
2023-02-03T06:45:27.672Z,0.95
2023-02-03T06:48:20.764Z,1.08
2023-02-03T06:51:13.884Z,1.23
2023-02-03T06:54:08.790Z,1.10
2023-02-03T06:57:01.931Z,1.20
2023-02-03T06:59:55.004Z,1.05
2023-02-03T07:02:53.861Z,1.05
2023-02-03T07:05:47.295Z,1.00
2023-02-03T07:08:41.555Z,0.85
2023-02-03T07:11:36.184Z,1.00
2023-02-03T07:14:30.968Z,1.25
2023-02-03T07:17:24.045Z,1.05
2023-02-03T07:20:17.360Z,0.90
2023-02-03T07:23:10.533Z,0.88
2023-02-03T07:26:05.745Z,1.00
2023-02-03T07:29:00.828Z,1.08
2023-02-03T07:31:53.910Z,1.00
2023-02-03T07:34:46.678Z,1.10
2023-02-03T07:37:39.814Z,1.08
2023-02-03T07:40:32.762Z,1.08
2023-02-03T07:43:26.198Z,1.08
2023-02-03T07:46:21.470Z,1.10
2023-02-03T07:49:15.384Z,1.02
2023-02-03T07:52:09.251Z,1.17
2023-02-03T07:55:02.896Z,1.40
2023-02-03T07:57:56.725Z,1.00
2023-02-03T08:00:49.572Z,1.20
2023-02-03T08:03:44.637Z,1.25
2023-02-03T08:06:37.860Z,1.33
2023-02-03T08:09:30.751Z,1.00
2023-02-03T08:12:23.903Z,0.88
2023-02-03T08:15:17.260Z,0.93
2023-02-03T08:18:12.571Z,0.85
2023-02-03T08:21:07.677Z,1.38
2023-02-03T08:24:00.578Z,1.27
2023-02-03T08:26:54.374Z,1.83
2023-02-03T08:29:48.083Z,1.70
2023-02-03T08:32:41.088Z,1.75
2023-02-03T08:35:34.257Z,1.70
2023-02-03T08:38:29.097Z,2.80
2023-02-03T08:41:21.881Z,2.30
2023-02-03T08:44:14.804Z,1.70
2023-02-03T08:47:08.954Z,1.80
2023-02-03T08:50:01.729Z,2.30
2023-02-03T08:52:55.101Z,1.83
2023-02-03T08:55:49.289Z,1.40
2023-02-03T08:58:42.948Z,1.52
2023-02-03T09:01:36.391Z,1.38
2023-02-03T09:04:29.862Z,1.70
2023-02-03T09:07:22.964Z,1.65
2023-02-03T09:10:15.529Z,1.02
2023-02-03T09:13:10.167Z,1.10
2023-02-03T09:16:02.874Z,1.50
2023-02-03T09:18:55.901Z,1.30
2023-02-03T09:21:49.260Z,1.42
2023-02-03T09:24:43.105Z,1.10
2023-02-03T09:27:35.962Z,1.08
2023-02-03T09:30:30.752Z,1.13
2023-02-03T09:33:23.758Z,1.30
2023-02-03T09:36:17.233Z,0.93
2023-02-03T09:39:11.085Z,1.40
2023-02-03T09:42:13.544Z,1.00
2023-02-03T09:45:17.328Z,1.30
2023-02-03T09:48:17.162Z,1.00
2023-02-03T09:51:20.822Z,1.17
2023-02-03T09:54:20.265Z,1.20
2023-02-03T09:57:19.452Z,1.35
2023-02-03T10:00:20.952Z,1.35
2023-02-03T10:03:26.429Z,1.35
2023-02-03T10:06:29.161Z,1.10
2023-02-03T10:09:34.683Z,0.85
2023-02-03T10:12:52.671Z,1.15
2023-02-03T10:16:08.823Z,1.00
2023-02-03T10:19:08.309Z,0.70
2023-02-03T10:22:04.572Z,0.82
2023-02-03T10:25:01.869Z,0.88
2023-02-03T10:27:59.345Z,0.80
2023-02-03T10:30:57.261Z,0.90
2023-02-03T10:33:57.351Z,0.90
2023-02-03T10:36:57.401Z,1.02
2023-02-03T10:39:52.779Z,0.82
2023-02-03T10:43:06.838Z,1.00
2023-02-03T10:46:00.420Z,1.27
2023-02-03T10:48:54.049Z,0.82
2023-02-03T10:51:51.356Z,0.88
2023-02-03T10:54:46.202Z,0.82
2023-02-03T10:57:40.170Z,0.52
2023-02-03T11:00:35.988Z,0.70
2023-02-03T11:03:30.243Z,0.60
2023-02-03T11:06:23.291Z,0.88
2023-02-03T11:09:28.356Z,0.82
2023-02-03T11:12:22.935Z,0.90
2023-02-03T11:15:15.946Z,0.90
2023-02-03T11:18:45.076Z,1.00
2023-02-03T11:21:45.834Z,1.17
2023-02-03T11:24:42.761Z,0.70
2023-02-03T11:27:37.189Z,0.80
2023-02-03T11:30:30.767Z,0.90
2023-02-03T11:33:26.964Z,0.85
2023-02-03T11:36:20.937Z,1.10
2023-02-03T11:39:28.159Z,0.73
2023-02-03T11:42:25.585Z,0.80
2023-02-03T11:45:27.070Z,0.90
2023-02-03T11:48:28.419Z,0.80
2023-02-03T11:51:33.794Z,0.80
2023-02-03T11:54:37.676Z,0.60
2023-02-03T11:57:41.625Z,1.17
2023-02-03T12:00:43.083Z,0.75
2023-02-03T12:03:47.824Z,0.70
2023-02-03T12:07:03.795Z,0.57
2023-02-03T12:10:05.016Z,0.70
2023-02-03T12:13:06.030Z,0.57
2023-02-03T12:16:16.679Z,0.88
2023-02-03T12:19:18.600Z,0.80
2023-02-03T12:22:24.837Z,0.70
2023-02-03T12:25:37.593Z,0.65
2023-02-03T12:28:48.040Z,1.20
2023-02-03T12:31:47.613Z,0.57
2023-02-03T12:34:45.520Z,0.45
2023-02-03T12:37:45.839Z,0.70
2023-02-03T12:40:43.934Z,0.88
2023-02-03T12:43:40.418Z,0.70
2023-02-03T12:46:38.636Z,0.80
2023-02-03T12:49:39.940Z,0.60
2023-02-03T12:52:37.409Z,0.70
2023-02-03T12:55:36.677Z,0.75
2023-02-03T12:58:34.826Z,0.60
2023-02-03T13:01:33.365Z,0.80
2023-02-03T13:04:34.922Z,0.68
2023-02-03T13:07:39.926Z,0.70
2023-02-03T13:10:37.976Z,0.57
2023-02-03T13:13:36.791Z,0.70
2023-02-03T13:16:36.753Z,0.70
2023-02-03T13:19:40.402Z,0.73
2023-02-03T13:22:35.420Z,0.70
2023-02-03T13:25:37.662Z,0.70
2023-02-03T13:28:43.021Z,0.75
2023-02-03T13:31:47.605Z,0.50
2023-02-03T13:35:08.005Z,0.50
2023-02-03T13:38:16.105Z,0.50
2023-02-03T13:41:13.996Z,0.70
2023-02-03T13:44:12.694Z,0.70
2023-02-03T13:47:07.192Z,0.70
2023-02-03T13:50:03.073Z,0.50
2023-02-03T13:53:00.913Z,0.40
2023-02-03T13:55:57.902Z,0.52
2023-02-03T13:59:03.884Z,0.57
2023-02-03T14:02:41.404Z,0.50
2023-02-03T14:05:44.853Z,0.68
2023-02-03T14:08:51.807Z,0.65
2023-02-03T14:11:48.057Z,0.57
2023-02-03T14:14:56.359Z,0.68
2023-02-03T14:18:01.493Z,0.65
2023-02-03T14:21:18.604Z,0.55
2023-02-03T14:24:14.576Z,0.63
2023-02-03T14:27:19.717Z,0.70
2023-02-03T14:30:16.880Z,0.70
2023-02-03T14:33:10.223Z,0.60
2023-02-03T14:36:03.255Z,0.40
2023-02-03T14:38:57.711Z,0.60
2023-02-03T14:42:00.187Z,0.85
2023-02-03T14:45:08.203Z,0.65
2023-02-03T14:48:14.821Z,0.65
2023-02-03T14:51:17.906Z,0.90
2023-02-03T14:54:23.204Z,0.85
2023-02-03T14:57:31.503Z,0.70
2023-02-03T15:00:34.171Z,0.73
2023-02-03T15:03:31.474Z,0.75
2023-02-03T15:06:40.964Z,0.80
2023-02-03T15:09:39.956Z,0.70
2023-02-03T15:12:38.860Z,0.40
2023-02-03T15:15:39.227Z,0.60
2023-02-03T15:18:36.181Z,0.52
2023-02-03T15:21:30.172Z,0.73
2023-02-03T15:24:25.777Z,0.70
2023-02-03T15:27:26.012Z,0.70
2023-02-03T15:30:25.071Z,0.88
2023-02-03T15:33:22.859Z,0.50
2023-02-03T15:36:20.633Z,0.47
2023-02-03T15:39:39.154Z,0.77
2023-02-03T15:42:38.010Z,0.40
2023-02-03T15:45:35.998Z,0.85
2023-02-03T15:48:36.723Z,0.52
2023-02-03T15:51:34.801Z,0.60
2023-02-03T15:54:40.333Z,0.60
2023-02-03T15:57:37.305Z,0.70
2023-02-03T16:00:34.874Z,0.45
2023-02-03T16:03:39.387Z,0.52
2023-02-03T16:06:36.953Z,0.60
2023-02-03T16:09:33.269Z,0.70
2023-02-03T16:12:28.353Z,0.60
2023-02-03T16:15:26.126Z,0.70
2023-02-03T16:18:19.734Z,0.60
2023-02-03T16:21:31.557Z,0.77
2023-02-03T16:24:47.670Z,0.65
2023-02-03T16:27:41.878Z,0.73
2023-02-03T16:30:53.136Z,0.73
2023-02-03T16:34:04.980Z,0.68
2023-02-03T16:37:17.638Z,0.82
2023-02-03T16:40:30.046Z,0.60
2023-02-03T16:43:42.771Z,0.40
2023-02-03T16:46:57.212Z,0.68
2023-02-03T16:50:09.981Z,0.60
2023-02-03T16:53:07.698Z,0.68
2023-02-03T16:56:07.027Z,0.82
2023-02-03T16:59:03.383Z,0.75
2023-02-03T17:01:57.957Z,0.55
2023-02-03T17:04:56.953Z,0.60
2023-02-03T17:07:54.551Z,0.50
2023-02-03T17:10:52.303Z,0.80
2023-02-03T17:13:47.435Z,0.60
2023-02-03T17:16:42.617Z,0.60
2023-02-03T17:19:37.969Z,0.45
2023-02-03T17:22:32.315Z,0.82
2023-02-03T17:25:26.966Z,0.50
2023-02-03T17:28:21.572Z,0.60
2023-02-03T17:31:17.119Z,0.90
2023-02-03T17:34:10.463Z,0.80
2023-02-03T17:37:03.529Z,0.80
2023-02-03T17:55:54.320Z,0.70
2023-02-03T17:58:48.401Z,0.80
2023-02-03T18:01:43.184Z,0.63
2023-02-03T18:04:36.308Z,0.50
2023-02-03T18:07:29.281Z,0.68
2023-02-03T18:10:22.934Z,0.60
2023-02-03T18:13:16.406Z,0.63
2023-02-03T18:16:11.549Z,0.60
2023-02-03T18:19:08.223Z,0.68
2023-02-03T18:22:03.888Z,0.70
2023-02-03T18:24:56.898Z,0.68
2023-02-03T18:27:51.921Z,0.60
2023-02-03T18:30:45.148Z,0.60
2023-02-03T18:33:39.032Z,0.70
2023-02-03T18:36:33.772Z,0.80
2023-02-03T18:39:28.028Z,0.60
2023-02-03T18:42:21.304Z,0.70
2023-02-03T18:45:14.381Z,0.50
2023-02-03T18:48:07.538Z,0.80
2023-02-03T18:51:00.509Z,0.70
2023-02-03T18:53:57.893Z,0.50
2023-02-03T18:56:51.349Z,0.50
2023-02-03T18:59:45.156Z,0.47
2023-02-03T19:02:38.829Z,1.02
2023-02-03T19:05:32.420Z,0.68
2023-02-03T19:08:25.226Z,0.60
2023-02-03T19:11:21.559Z,0.70
2023-02-03T19:14:16.366Z,0.50
2023-02-03T19:17:10.151Z,0.65
2023-02-03T19:20:03.756Z,0.50
2023-02-03T19:22:57.290Z,0.52
2023-02-03T19:25:51.942Z,0.70
2023-02-03T19:28:46.645Z,0.57
2023-02-03T19:31:39.641Z,0.50
2023-02-03T19:34:33.258Z,0.60
2023-02-03T19:37:26.404Z,0.90
2023-02-03T19:40:19.798Z,0.70
2023-02-03T19:43:13.303Z,0.60
2023-02-03T19:46:07.859Z,0.55
2023-02-03T19:49:01.337Z,0.70
2023-02-03T19:51:54.257Z,0.60
2023-02-03T19:54:47.238Z,0.50
2023-02-03T19:57:40.550Z,0.70
2023-02-03T20:00:35.357Z,0.60
2023-02-03T20:03:30.016Z,0.60
2023-02-03T20:06:23.415Z,0.70
2023-02-03T20:09:16.431Z,3.03
2023-02-03T20:12:09.621Z,4.43
2023-02-03T20:15:02.352Z,3.40
2023-02-03T20:17:55.511Z,2.72
2023-02-03T20:20:52.734Z,3.78
2023-02-03T20:23:46.659Z,3.50
2023-02-03T20:26:39.844Z,3.40
2023-02-03T20:29:33.330Z,2.95
2023-02-03T20:32:26.270Z,3.17
2023-02-03T20:35:19.805Z,3.42
2023-02-03T20:38:15.562Z,2.70
2023-02-03T20:41:10.603Z,2.92
2023-02-03T20:44:03.584Z,2.70
2023-02-03T20:46:56.431Z,2.85
2023-02-03T20:49:50.364Z,3.08
2023-02-03T20:52:43.322Z,2.92
2023-02-03T20:55:37.568Z,2.60
2023-02-03T20:58:31.749Z,2.42
2023-02-03T21:01:24.129Z,3.00
2023-02-03T21:04:36.749Z,3.03
2023-02-03T21:07:31.645Z,2.58
2023-02-03T21:10:26.246Z,2.35
2023-02-03T21:13:23.409Z,2.58
2023-02-03T21:16:19.419Z,2.97
2023-02-03T21:19:16.149Z,2.80
2023-02-03T21:22:18.117Z,3.70
2023-02-03T21:25:26.040Z,2.15
2023-02-03T21:28:26.375Z,2.45
2023-02-03T21:31:28.441Z,2.50
2023-02-03T21:34:30.268Z,2.83
2023-02-03T21:37:41.305Z,2.33
2023-02-03T21:40:35.785Z,2.35
2023-02-03T21:43:30.800Z,2.20
2023-02-03T21:46:26.828Z,2.13
2023-02-03T21:49:20.487Z,2.08
2023-02-03T21:52:14.182Z,2.58
2023-02-03T21:55:16.341Z,2.45
2023-02-03T21:58:22.424Z,2.60
2023-02-03T22:01:19.936Z,2.45
2023-02-03T22:04:13.763Z,2.40
2023-02-03T22:07:15.818Z,2.22
2023-02-03T22:10:09.979Z,2.45
2023-02-03T22:13:04.008Z,2.33
2023-02-03T22:15:58.067Z,2.00
2023-02-03T22:18:53.152Z,2.05
2023-02-03T22:21:48.501Z,1.80
2023-02-03T22:24:41.194Z,2.00
2023-02-03T22:27:35.130Z,2.28
2023-02-03T22:30:29.035Z,2.28
2023-02-03T22:33:22.450Z,2.42
2023-02-03T22:36:16.819Z,2.00
2023-02-03T22:39:10.951Z,2.00
2023-02-03T22:42:04.537Z,2.35
2023-02-03T22:44:57.600Z,2.15
2023-02-03T22:47:50.546Z,2.00
2023-02-03T22:50:43.626Z,1.80
2023-02-03T22:53:39.352Z,1.85
2023-02-03T22:56:32.708Z,2.00
2023-02-03T22:59:25.473Z,2.10
2023-02-03T23:02:18.508Z,1.88
2023-02-03T23:05:11.680Z,2.17
2023-02-03T23:08:05.172Z,1.80
2023-02-03T23:10:59.940Z,1.88
2023-02-03T23:13:53.261Z,1.88
2023-02-03T23:16:46.776Z,2.35
2023-02-03T23:19:39.647Z,1.67
2023-02-03T23:22:32.552Z,2.10
2023-02-03T23:25:25.589Z,1.95
2023-02-03T23:28:19.726Z,1.90
2023-02-03T23:31:15.109Z,1.67
2023-02-03T23:34:25.724Z,1.77
2023-02-03T23:37:18.956Z,1.83
2023-02-03T23:40:13.426Z,2.05
2023-02-03T23:43:06.508Z,1.88
2023-02-03T23:46:01.101Z,1.33
2023-02-03T23:48:55.056Z,1.90
2023-02-03T23:51:48.448Z,1.60
2023-02-03T23:54:41.660Z,1.60
2023-02-03T23:57:34.632Z,2.40
